createdAt,value
2022-08-14T00:01:10.046Z,55.56
2022-08-14T00:03:40.640Z,55.52
2022-08-14T00:06:25.351Z,55.61
2022-08-14T00:08:59.163Z,55.75
2022-08-14T00:11:28.800Z,55.43
2022-08-14T00:13:59.818Z,55.68
2022-08-14T00:16:40.571Z,55.62
2022-08-14T00:19:21.195Z,55.98
2022-08-14T00:21:52.737Z,55.63
2022-08-14T00:24:28.128Z,55.64
2022-08-14T00:26:57.492Z,56.08
2022-08-14T00:29:30.624Z,56.04
2022-08-14T00:32:00.067Z,55.76
2022-08-14T00:34:37.818Z,56.09
2022-08-14T00:37:13.747Z,55.96
2022-08-14T00:39:40.873Z,56.29
2022-08-14T00:42:21.327Z,56.03
2022-08-14T00:44:57.370Z,56.34
2022-08-14T00:47:24.881Z,56.32
2022-08-14T00:49:56.407Z,56.29
2022-08-14T00:52:26.319Z,55.95
2022-08-14T00:54:58.255Z,55.93
2022-08-14T00:57:32.021Z,56.02
2022-08-14T01:00:00.732Z,56.24
2022-08-14T01:02:28.569Z,56.32
2022-08-14T01:05:01.460Z,56.05
2022-08-14T01:07:38.849Z,56.58
2022-08-14T01:10:18.060Z,56.18
2022-08-14T01:12:45.581Z,56.55
2022-08-14T01:15:16.855Z,56.66
2022-08-14T01:18:03.104Z,56.66
2022-08-14T01:20:50.567Z,56.51
2022-08-14T01:23:19.041Z,56.28
2022-08-14T01:25:51.066Z,56.30
2022-08-14T01:28:47.231Z,56.50
2022-08-14T01:31:12.538Z,56.39
2022-08-14T01:33:59.095Z,56.40
2022-08-14T01:36:36.852Z,56.65
2022-08-14T01:39:09.699Z,56.79
2022-08-14T01:41:41.301Z,56.55
2022-08-14T01:44:33.318Z,56.91
2022-08-14T01:47:21.484Z,56.80
2022-08-14T01:50:01.765Z,56.67
2022-08-14T01:52:58.823Z,56.93
2022-08-14T01:55:25.472Z,56.89
2022-08-14T01:58:01.704Z,57.09
2022-08-14T02:00:42.214Z,56.96
2022-08-14T02:03:08.879Z,57.14
2022-08-14T02:05:38.332Z,57.04
2022-08-14T02:08:09.770Z,56.92
2022-08-14T02:10:46.815Z,57.17
2022-08-14T02:13:16.534Z,57.31
2022-08-14T02:15:44.186Z,57.32
2022-08-14T02:18:11.807Z,57.58
2022-08-14T02:20:42.459Z,57.36
2022-08-14T02:25:36.819Z,57.74
2022-08-14T02:28:22.109Z,58.09
2022-08-14T02:30:53.386Z,58.10
2022-08-14T02:33:22.632Z,57.71
2022-08-14T02:35:53.354Z,58.26
2022-08-14T02:38:30.080Z,58.20
2022-08-14T02:41:01.251Z,58.45
2022-08-14T02:43:37.218Z,58.85
2022-08-14T02:46:20.792Z,58.51
2022-08-14T02:49:03.319Z,58.91
2022-08-14T02:51:34.285Z,58.74
2022-08-14T02:54:03.542Z,58.70
2022-08-14T02:57:13.849Z,59.12
2022-08-14T02:59:19.428Z,59.23
2022-08-14T03:01:51.144Z,59.46
2022-08-14T03:04:22.250Z,59.14
2022-08-14T03:06:57.925Z,59.38
2022-08-14T03:09:42.182Z,59.73
2022-08-14T03:12:30.852Z,59.87
2022-08-14T03:14:59.799Z,59.78
2022-08-14T03:17:26.985Z,60.09
2022-08-14T03:19:59.127Z,59.85
2022-08-14T03:22:29.983Z,60.15
2022-08-14T03:24:56.855Z,60.30
2022-08-14T03:27:26.509Z,60.28
2022-08-14T03:30:05.465Z,60.62
2022-08-14T03:32:33.549Z,60.64
2022-08-14T03:35:00.844Z,61.23
2022-08-14T03:39:08.381Z,61.01
2022-08-14T03:40:25.147Z,61.27
2022-08-14T03:42:52.361Z,61.33
2022-08-14T03:45:34.297Z,61.26
2022-08-14T03:48:30.402Z,61.54
2022-08-14T03:50:59.752Z,61.65
2022-08-14T03:53:28.463Z,61.36
2022-08-14T03:55:59.153Z,61.66
2022-08-14T03:58:36.503Z,61.37
2022-08-14T04:01:06.489Z,61.64
2022-08-14T04:03:34.421Z,61.65
2022-08-14T04:06:04.967Z,61.64
2022-08-14T04:08:36.916Z,61.40
2022-08-14T04:11:10.124Z,61.41
2022-08-14T04:13:41.739Z,61.65
2022-08-14T04:16:14.710Z,61.76
2022-08-14T04:18:49.800Z,61.77
2022-08-14T04:21:17.325Z,61.95
2022-08-14T04:23:52.956Z,61.82
2022-08-14T04:26:43.237Z,61.93
2022-08-14T04:29:14.659Z,61.98
2022-08-14T04:33:02.299Z,62.08
2022-08-14T04:34:29.842Z,61.99
2022-08-14T04:37:22.020Z,62.14
2022-08-14T04:40:10.075Z,62.47
2022-08-14T04:42:57.222Z,62.18
2022-08-14T04:45:29.561Z,62.30
2022-08-14T04:48:39.504Z,62.69
2022-08-14T04:51:05.636Z,62.78
2022-08-14T04:53:35.417Z,62.52
2022-08-14T04:56:06.169Z,62.52
2022-08-14T04:58:38.986Z,62.55
2022-08-14T05:01:12.770Z,63.08
2022-08-14T05:03:44.966Z,62.64
2022-08-14T05:06:38.423Z,63.14
2022-08-14T05:09:00.720Z,63.08
2022-08-14T05:11:28.021Z,63.03
2022-08-14T05:14:42.662Z,62.95
2022-08-14T05:16:46.780Z,63.05
2022-08-14T05:19:17.870Z,63.42
2022-08-14T05:22:15.586Z,63.21
2022-08-14T05:24:48.469Z,63.49
2022-08-14T05:27:23.120Z,63.08
2022-08-14T05:29:56.693Z,63.54
2022-08-14T05:32:27.975Z,63.75
2022-08-14T05:34:58.525Z,63.67
2022-08-14T05:37:26.916Z,64.19
2022-08-14T05:39:55.260Z,64.34
2022-08-14T05:42:27.088Z,64.32
2022-08-14T05:44:58.621Z,64.48
2022-08-14T05:47:28.715Z,64.27
2022-08-14T05:50:02.065Z,64.37
2022-08-14T05:52:38.391Z,64.32
2022-08-14T05:55:08.900Z,64.51
2022-08-14T05:57:46.970Z,64.61
2022-08-14T06:00:24.713Z,64.91
2022-08-14T06:02:59.918Z,64.94
2022-08-14T06:05:29.186Z,64.43
2022-08-14T06:07:58.589Z,64.67
2022-08-14T06:10:28.328Z,64.55
2022-08-14T06:12:57.373Z,64.42
2022-08-14T06:15:29.968Z,64.39
2022-08-14T06:17:59.133Z,64.64
2022-08-14T06:20:26.986Z,64.38
2022-08-14T06:22:55.556Z,64.33
2022-08-14T06:25:25.080Z,64.28
2022-08-14T06:27:53.234Z,64.29
2022-08-14T06:30:23.123Z,64.71
2022-08-14T06:32:52.802Z,64.18
2022-08-14T06:35:23.538Z,64.50
2022-08-14T06:37:51.867Z,64.42
2022-08-14T06:40:26.920Z,64.26
2022-08-14T06:43:15.394Z,64.41
2022-08-14T06:45:50.121Z,64.76
2022-08-14T06:48:24.040Z,64.71
2022-08-14T06:50:53.564Z,64.18
2022-08-14T06:53:21.237Z,64.21
2022-08-14T06:55:57.891Z,64.25
2022-08-14T06:58:28.726Z,64.40
2022-08-14T07:01:15.033Z,64.00
2022-08-14T07:04:01.149Z,64.01
2022-08-14T07:06:46.824Z,63.97
2022-08-14T07:09:19.813Z,63.85
2022-08-14T07:11:49.906Z,63.92
2022-08-14T07:14:16.942Z,64.24
2022-08-14T07:16:43.642Z,63.94
2022-08-14T07:19:11.545Z,64.13
2022-08-14T07:21:39.764Z,63.97
2022-08-14T07:24:09.727Z,63.92
2022-08-14T07:26:49.306Z,64.12
2022-08-14T07:29:17.491Z,64.01
2022-08-14T07:31:44.808Z,63.80
2022-08-14T07:34:13.281Z,63.94
2022-08-14T07:37:01.080Z,63.85
2022-08-14T07:39:28.385Z,63.72
2022-08-14T07:41:55.158Z,63.63
2022-08-14T07:44:32.070Z,63.42
2022-08-14T07:47:02.343Z,63.40
2022-08-14T07:49:34.640Z,63.18
2022-08-14T07:52:05.331Z,62.87
2022-08-14T07:54:35.356Z,63.01
2022-08-14T07:57:06.648Z,62.72
2022-08-14T07:59:44.250Z,62.66
2022-08-14T08:02:19.029Z,62.85
2022-08-14T08:04:49.732Z,62.85
2022-08-14T08:07:16.926Z,62.78
2022-08-14T08:09:53.807Z,62.77
2022-08-14T08:12:26.162Z,62.48
2022-08-14T08:15:03.122Z,62.52
2022-08-14T08:17:38.542Z,62.26
2022-08-14T08:20:16.789Z,62.22
2022-08-14T08:22:49.903Z,61.91
2022-08-14T08:25:27.665Z,61.64
2022-08-14T08:27:59.794Z,61.53
2022-08-14T08:30:28.085Z,61.65
2022-08-14T08:32:57.513Z,61.46
2022-08-14T08:35:46.365Z,61.24
2022-08-14T08:39:16.411Z,60.87
2022-08-14T08:41:05.520Z,60.79
2022-08-14T08:43:38.290Z,60.49
2022-08-14T08:46:21.707Z,60.07
2022-08-14T08:51:30.807Z,59.49
2022-08-14T08:54:20.034Z,59.02
2022-08-14T08:56:53.288Z,58.81
2022-08-14T08:59:31.380Z,58.84
2022-08-14T09:02:06.607Z,58.14
2022-08-14T09:04:45.283Z,57.78
2022-08-14T09:07:25.856Z,57.64
2022-08-14T09:09:58.556Z,57.59
2022-08-14T09:12:31.590Z,57.20
2022-08-14T09:15:02.195Z,57.17
2022-08-14T09:17:30.325Z,56.64
2022-08-14T09:20:02.239Z,56.58
2022-08-14T09:22:32.933Z,56.44
2022-08-14T09:25:07.259Z,56.01
2022-08-14T09:27:36.849Z,56.04
2022-08-14T09:30:31.029Z,56.03
2022-08-14T09:33:10.821Z,55.82
2022-08-14T09:35:48.777Z,55.73
2022-08-14T09:38:33.685Z,55.53
2022-08-14T09:41:08.148Z,55.38
2022-08-14T09:43:52.253Z,55.05
2022-08-14T09:46:21.370Z,55.22
2022-08-14T09:49:03.196Z,54.90
2022-08-14T09:51:32.637Z,54.67
2022-08-14T09:54:18.916Z,54.57
2022-08-14T09:56:56.659Z,54.48
2022-08-14T09:59:27.962Z,54.20
2022-08-14T10:01:57.328Z,53.97
2022-08-14T10:04:33.962Z,53.96
2022-08-14T10:07:08.590Z,53.93
2022-08-14T10:09:57.775Z,53.95
2022-08-14T10:12:44.845Z,53.96
2022-08-14T10:15:25.410Z,53.70
2022-08-14T10:18:27.193Z,53.51
2022-08-14T10:21:01.699Z,53.12
2022-08-14T10:23:39.693Z,52.69
2022-08-14T10:26:08.249Z,52.44
2022-08-14T10:29:17.760Z,52.01
2022-08-14T10:31:44.466Z,51.38
2022-08-14T10:34:14.047Z,51.20
2022-08-14T10:36:48.060Z,50.72
2022-08-14T10:39:20.937Z,50.61
2022-08-14T10:41:53.691Z,50.14
2022-08-14T10:44:29.861Z,49.74
2022-08-14T10:47:40.690Z,49.58
2022-08-14T10:50:00.483Z,49.23
2022-08-14T10:52:33.857Z,49.07
2022-08-14T10:55:15.577Z,48.73
2022-08-14T10:57:53.980Z,48.45
2022-08-14T11:00:30.105Z,48.17
2022-08-14T11:03:11.049Z,48.16
2022-08-14T11:05:43.891Z,48.00
2022-08-14T11:08:13.088Z,47.52
2022-08-14T11:10:47.515Z,47.42
2022-08-14T11:13:25.939Z,46.85
2022-08-14T11:15:57.656Z,46.44
2022-08-14T11:18:32.319Z,45.95
2022-08-14T11:21:08.080Z,45.62
2022-08-14T11:23:39.857Z,44.73
2022-08-14T11:30:54.639Z,43.27
2022-08-14T11:34:32.062Z,42.37
2022-08-14T11:38:00.430Z,41.32
2022-08-14T11:41:26.889Z,40.07
2022-08-14T11:49:04.454Z,37.29
2022-08-14T11:52:35.312Z,36.45
2022-08-14T11:56:11.148Z,36.51
2022-08-14T11:59:38.546Z,36.74
2022-08-14T12:03:03.980Z,37.65
2022-08-14T12:06:39.204Z,37.90
2022-08-14T12:10:26.560Z,38.16
2022-08-14T12:13:55.897Z,38.46
2022-08-14T12:17:24.098Z,39.37
2022-08-14T12:20:15.281Z,39.66
2022-08-14T12:22:44.858Z,39.88
2022-08-14T12:25:14.064Z,40.18
2022-08-14T12:27:52.435Z,40.42
2022-08-14T12:30:43.396Z,40.64
2022-08-14T12:33:31.153Z,40.65
2022-08-14T12:36:04.128Z,40.62
2022-08-14T12:38:44.041Z,41.09
2022-08-14T12:41:20.590Z,41.14
2022-08-14T12:43:59.824Z,40.83
2022-08-14T12:47:09.742Z,41.06
2022-08-14T12:49:51.211Z,40.94
2022-08-14T12:52:56.000Z,40.66
2022-08-14T12:56:18.763Z,40.50
2022-08-14T12:58:43.658Z,40.32
2022-08-14T13:01:58.981Z,40.04
2022-08-14T13:04:24.439Z,39.42
2022-08-14T13:11:44.724Z,38.65
2022-08-14T13:15:11.706Z,38.35
2022-08-14T13:18:41.312Z,37.85
2022-08-14T13:22:19.485Z,37.33
2022-08-14T13:29:43.778Z,36.74
2022-08-14T13:33:14.881Z,36.50
2022-08-14T13:36:54.378Z,36.52
2022-08-14T13:40:28.685Z,36.36
2022-08-14T13:43:59.995Z,36.28
2022-08-14T13:47:26.858Z,35.95
2022-08-14T13:50:53.595Z,35.39
2022-08-14T13:58:04.283Z,34.10
2022-08-14T14:01:35.023Z,32.64
2022-08-14T14:08:55.916Z,29.86
2022-08-14T14:12:36.552Z,29.19
2022-08-14T14:16:07.753Z,28.73
2022-08-14T14:19:34.196Z,28.51
2022-08-14T14:26:53.487Z,27.44
2022-08-14T14:30:46.163Z,27.69
2022-08-14T14:34:19.920Z,28.31
2022-08-14T18:53:46.743Z,49.26
2022-08-14T18:56:18.365Z,49.25
2022-08-14T18:58:57.079Z,49.08
2022-08-14T19:01:30.236Z,49.43
2022-08-14T19:03:59.399Z,49.17
2022-08-14T19:06:42.035Z,49.53
2022-08-14T19:09:50.631Z,49.76
2022-08-14T19:12:57.505Z,49.42
2022-08-14T19:15:33.216Z,49.42
2022-08-14T19:18:14.019Z,49.53
2022-08-14T19:20:52.734Z,49.79
2022-08-14T19:23:40.596Z,49.78
2022-08-14T19:26:54.370Z,49.74
2022-08-14T19:29:37.600Z,49.58
2022-08-14T19:32:26.651Z,49.77
2022-08-14T19:34:54.743Z,49.99
2022-08-14T19:37:47.967Z,50.28
2022-08-14T19:40:40.171Z,50.37
2022-08-14T19:43:10.631Z,50.36
2022-08-14T19:45:38.978Z,50.78
2022-08-14T19:48:14.059Z,50.69
2022-08-14T19:50:44.402Z,51.15
2022-08-14T19:53:17.709Z,51.04
2022-08-14T19:55:58.674Z,51.24
2022-08-14T19:58:53.993Z,51.32
2022-08-14T20:01:37.566Z,51.49
2022-08-14T20:04:45.332Z,51.57
2022-08-14T20:08:06.545Z,51.76
2022-08-14T20:15:46.772Z,52.67
2022-08-14T20:18:56.333Z,52.57
2022-08-14T20:21:34.355Z,52.23
2022-08-14T20:24:54.258Z,52.56
2022-08-14T20:27:44.527Z,52.86
2022-08-14T20:31:11.120Z,52.47
2022-08-14T20:34:36.145Z,52.71
2022-08-14T20:41:05.838Z,52.84
2022-08-14T20:43:56.011Z,53.17
2022-08-14T20:46:38.348Z,52.88
2022-08-14T20:49:09.834Z,52.98
2022-08-14T20:51:54.553Z,53.63
2022-08-14T20:54:33.850Z,53.57
2022-08-14T20:57:15.053Z,53.85
2022-08-14T20:59:53.695Z,53.69
2022-08-14T21:02:38.429Z,53.82
2022-08-14T21:05:16.278Z,53.99
2022-08-14T21:07:50.361Z,53.88
2022-08-14T21:10:33.662Z,53.69
2022-08-14T21:13:26.521Z,53.76
2022-08-14T21:15:56.626Z,53.70
2022-08-14T21:18:31.683Z,53.94
2022-08-14T21:21:07.090Z,54.34
2022-08-14T21:23:54.686Z,54.25
2022-08-14T21:26:51.025Z,54.62
2022-08-14T21:29:16.247Z,54.24
2022-08-14T21:31:55.266Z,54.22
2022-08-14T21:34:27.207Z,54.31
2022-08-14T21:37:09.078Z,54.67
2022-08-14T21:39:37.745Z,54.60
2022-08-14T21:42:06.241Z,54.69
2022-08-14T21:44:34.361Z,54.79
2022-08-14T21:47:12.677Z,55.04
2022-08-14T21:49:39.944Z,54.76
2022-08-14T21:52:49.592Z,54.83
2022-08-14T21:55:09.581Z,54.70
2022-08-14T21:57:56.044Z,54.86
2022-08-14T22:00:42.432Z,55.11
2022-08-14T22:03:23.535Z,55.29
2022-08-14T22:05:53.403Z,55.61
2022-08-14T22:08:26.756Z,55.67
2022-08-14T22:10:55.215Z,55.68
2022-08-14T22:13:26.784Z,55.42
2022-08-14T22:16:02.109Z,55.28
2022-08-14T22:18:30.277Z,55.61
2022-08-14T22:20:57.995Z,55.30
2022-08-14T22:23:25.828Z,55.26
2022-08-14T22:25:53.815Z,55.52
2022-08-14T22:28:33.195Z,55.59
2022-08-14T22:31:09.940Z,55.51
2022-08-14T22:33:39.077Z,55.69
2022-08-14T22:36:26.792Z,55.35
2022-08-14T22:39:01.203Z,55.56
2022-08-14T22:41:32.719Z,55.46
2022-08-14T22:44:10.954Z,55.86
2022-08-14T22:46:38.176Z,55.47
2022-08-14T22:49:16.549Z,55.84
2022-08-14T22:51:57.980Z,55.54
2022-08-14T22:54:52.680Z,55.69
2022-08-14T22:57:14.065Z,56.16
2022-08-14T22:59:41.359Z,55.86
2022-08-14T23:02:30.200Z,56.00
2022-08-14T23:04:58.542Z,56.07
2022-08-14T23:08:58.371Z,56.23
2022-08-14T23:10:32.913Z,56.19
2022-08-14T23:13:02.921Z,56.37
2022-08-14T23:15:30.502Z,56.20
2022-08-14T23:17:58.186Z,56.20
2022-08-14T23:20:29.292Z,56.62
2022-08-14T23:22:57.034Z,56.56
2022-08-14T23:25:57.079Z,56.73
2022-08-14T23:28:32.980Z,56.67
2022-08-14T23:31:08.587Z,56.79
2022-08-14T23:33:45.806Z,56.79
2022-08-14T23:36:32.081Z,57.26
2022-08-14T23:39:07.266Z,57.16
2022-08-14T23:41:46.798Z,57.37
2022-08-14T23:44:21.722Z,57.30
2022-08-14T23:46:52.616Z,57.73
2022-08-14T23:49:24.250Z,57.94
2022-08-14T23:52:51.160Z,58.03
2022-08-14T23:54:49.084Z,58.61
2022-08-14T23:57:19.106Z,59.03
2022-08-14T23:59:54.298Z,59.46
